createdAt,value
2018-05-02T00:00:38.952Z,0
2018-05-02T00:01:48.756Z,0
2018-05-02T00:02:58.830Z,0
2018-05-02T00:04:08.668Z,0
2018-05-02T00:05:18.744Z,0
2018-05-02T00:06:28.823Z,0
2018-05-02T00:07:38.693Z,0
2018-05-02T00:08:48.776Z,0
2018-05-02T00:09:58.857Z,0
2018-05-02T00:11:08.934Z,0
2018-05-02T00:12:19.068Z,0
2018-05-02T00:13:28.872Z,0
2018-05-02T00:14:38.724Z,0
2018-05-02T00:15:48.535Z,0
2018-05-02T00:16:58.359Z,0
2018-05-02T00:18:09.178Z,0
2018-05-02T00:19:19.355Z,0
2018-05-02T00:20:29.437Z,0
2018-05-02T00:21:39.512Z,0
2018-05-02T00:22:49.335Z,0
2018-05-02T00:23:59.198Z,0
2018-05-02T00:25:09.035Z,0
2018-05-02T00:26:19.122Z,0
2018-05-02T00:27:29.193Z,0
2018-05-02T00:28:39.512Z,0
2018-05-02T00:29:49.605Z,0
2018-05-02T00:30:59.674Z,0
2018-05-02T00:32:09.758Z,0
2018-05-02T00:33:19.839Z,0
2018-05-02T00:34:29.664Z,0
2018-05-02T00:35:39.740Z,0
2018-05-02T00:36:49.815Z,0
2018-05-02T00:37:59.899Z,0
2018-05-02T00:39:09.989Z,0
2018-05-02T00:40:20.070Z,0
2018-05-02T00:41:30.149Z,0
2018-05-02T00:42:40.230Z,0
2018-05-02T00:43:50.326Z,0
2018-05-02T00:45:00.458Z,0
2018-05-02T00:46:10.537Z,0
2018-05-02T00:47:20.630Z,0
2018-05-02T00:48:30.737Z,0
2018-05-02T00:49:40.821Z,0
2018-05-02T00:50:50.940Z,0
2018-05-02T00:52:01.023Z,0
2018-05-02T00:53:11.159Z,0
2018-05-02T00:54:20.723Z,0
2018-05-02T00:55:30.554Z,0
2018-05-02T00:56:40.615Z,0
2018-05-02T00:57:50.691Z,0
2018-05-02T00:59:00.778Z,0
2018-05-02T01:00:10.865Z,0
2018-05-02T01:01:20.944Z,0
2018-05-02T01:02:31.020Z,0
2018-05-02T01:03:40.564Z,0
2018-05-02T01:04:50.742Z,0
2018-05-02T01:06:00.552Z,0
2018-05-02T01:07:10.636Z,0
2018-05-02T01:08:20.728Z,0
2018-05-02T01:09:30.803Z,0
2018-05-02T01:10:40.876Z,0
2018-05-02T01:11:50.952Z,0
2018-05-02T01:13:00.514Z,0
2018-05-02T01:14:10.606Z,0
2018-05-02T01:15:20.679Z,0
2018-05-02T01:16:30.739Z,0
2018-05-02T01:17:40.853Z,0
2018-05-02T01:18:50.919Z,0
2018-05-02T01:20:00.986Z,0
2018-05-02T01:21:11.057Z,0
2018-05-02T01:22:21.145Z,0
2018-05-02T01:23:31.219Z,0
2018-05-02T01:24:41.298Z,0
2018-05-02T01:25:51.388Z,0
2018-05-02T01:27:01.200Z,0
2018-05-02T01:28:11.281Z,0
2018-05-02T01:29:21.086Z,0
2018-05-02T01:30:31.157Z,0
2018-05-02T01:31:41.487Z,0
2018-05-02T01:32:51.296Z,0
2018-05-02T01:34:01.097Z,0
2018-05-02T01:35:11.172Z,0
2018-05-02T01:36:20.979Z,0
2018-05-02T01:37:31.061Z,0
2018-05-02T01:38:41.131Z,0
2018-05-02T01:39:50.954Z,0
2018-05-02T01:41:01.027Z,0
2018-05-02T01:42:11.102Z,0
2018-05-02T01:43:21.194Z,0
2018-05-02T01:44:31.260Z,0
2018-05-02T01:45:41.062Z,0
2018-05-02T01:46:50.354Z,0
2018-05-02T01:48:00.435Z,0
2018-05-02T01:49:10.237Z,0
2018-05-02T01:50:20.316Z,0
2018-05-02T01:51:30.676Z,0
2018-05-02T01:52:40.772Z,0
2018-05-02T01:53:50.591Z,0
2018-05-02T01:55:00.679Z,0
2018-05-02T01:56:10.497Z,0
2018-05-02T01:57:20.560Z,0
2018-05-02T01:58:30.641Z,0
2018-05-02T01:59:40.708Z,0
2018-05-02T02:00:50.784Z,0
2018-05-02T02:02:00.702Z,0
2018-05-02T02:03:10.765Z,0
2018-05-02T02:04:20.849Z,0
2018-05-02T02:05:30.918Z,0
2018-05-02T02:06:40.988Z,0
2018-05-02T02:07:50.807Z,0
2018-05-02T02:09:00.617Z,0
2018-05-02T02:10:10.441Z,0
2018-05-02T02:11:20.526Z,0
2018-05-02T02:12:30.348Z,0
2018-05-02T02:13:40.458Z,0
2018-05-02T02:14:50.576Z,0
2018-05-02T02:16:00.652Z,0
2018-05-02T02:17:10.735Z,0
2018-05-02T02:18:20.812Z,0
2018-05-02T02:19:30.631Z,0
2018-05-02T02:20:40.731Z,0
2018-05-02T02:21:50.810Z,0
2018-05-02T02:23:00.628Z,0
2018-05-02T02:24:10.700Z,0
2018-05-02T02:25:20.796Z,0
2018-05-02T02:26:30.880Z,0
2018-05-02T02:27:40.973Z,0
2018-05-02T02:28:51.065Z,0
2018-05-02T02:30:00.886Z,0
2018-05-02T02:31:10.997Z,0
2018-05-02T02:32:21.076Z,0
2018-05-02T02:33:31.173Z,0
2018-05-02T02:34:41.258Z,0
2018-05-02T02:35:51.069Z,0
2018-05-02T02:37:01.152Z,0
2018-05-02T02:38:11.286Z,0
2018-05-02T02:39:21.098Z,0
2018-05-02T02:40:31.162Z,0
2018-05-02T02:41:40.990Z,0
2018-05-02T02:42:50.809Z,0
2018-05-02T02:44:00.949Z,0
2018-05-02T02:45:10.789Z,0
2018-05-02T02:46:20.875Z,0
2018-05-02T02:47:30.695Z,0
2018-05-02T02:48:40.785Z,0
2018-05-02T02:49:50.883Z,0
2018-05-02T02:51:00.991Z,0
2018-05-02T02:52:11.066Z,0
2018-05-02T02:53:20.870Z,0
2018-05-02T02:54:30.960Z,0
2018-05-02T02:55:41.088Z,0
2018-05-02T02:56:50.928Z,0
2018-05-02T02:58:01.004Z,0
2018-05-02T02:59:11.101Z,0
2018-05-02T03:00:21.214Z,0
2018-05-02T03:01:31.095Z,0
2018-05-02T03:34:09.474Z,0
2018-05-02T03:35:19.577Z,0
2018-05-02T03:36:29.384Z,0
2018-05-02T03:37:39.457Z,0
2018-05-02T03:38:49.263Z,0
2018-05-02T03:39:59.385Z,0
2018-05-02T03:41:09.476Z,0
2018-05-02T03:42:19.544Z,0
2018-05-02T03:43:29.635Z,0
2018-05-02T03:44:39.451Z,0
2018-05-02T03:45:49.270Z,0
2018-05-02T03:46:59.348Z,0
2018-05-02T03:48:09.432Z,0
2018-05-02T03:49:19.500Z,5
2018-05-02T03:50:29.300Z,5
2018-05-02T03:51:39.406Z,5
2018-05-02T03:52:49.477Z,5
2018-05-02T03:53:59.291Z,5
2018-05-02T03:55:09.362Z,5
2018-05-02T03:56:19.440Z,10
2018-05-02T03:57:29.570Z,10
2018-05-02T03:58:39.396Z,10
2018-05-02T03:59:49.469Z,10
2018-05-02T04:00:59.291Z,10
2018-05-02T04:02:09.357Z,10
2018-05-02T04:03:19.166Z,10
2018-05-02T04:04:28.995Z,10
2018-05-02T04:05:39.104Z,15
2018-05-02T04:06:48.928Z,15
2018-05-02T04:07:59.008Z,15
2018-05-02T04:09:09.143Z,15
2018-05-02T04:10:19.214Z,15
2018-05-02T04:11:29.031Z,15
2018-05-02T04:12:38.842Z,15
2018-05-02T04:13:48.920Z,15
2018-05-02T04:14:59.036Z,15
2018-05-02T04:16:09.121Z,15
2018-05-02T04:17:19.220Z,15
2018-05-02T04:18:29.288Z,15
2018-05-02T04:19:39.390Z,15
2018-05-02T04:20:49.529Z,15
2018-05-02T04:21:59.073Z,20
2018-05-02T04:23:08.901Z,20
2018-05-02T04:24:18.729Z,20
2018-05-02T04:25:28.804Z,20
2018-05-02T04:26:38.873Z,20
2018-05-02T04:27:48.945Z,25
2018-05-02T04:28:58.756Z,25
2018-05-02T04:30:08.834Z,25
2018-05-02T04:31:18.655Z,25
2018-05-02T04:32:28.752Z,25
2018-05-02T04:33:38.563Z,30
2018-05-02T04:34:48.380Z,30
2018-05-02T04:35:58.197Z,30
2018-05-02T04:37:08.289Z,35
2018-05-02T04:38:18.361Z,35
2018-05-02T04:39:28.439Z,35
2018-05-02T04:40:38.539Z,40
2018-05-02T04:41:48.636Z,40
2018-05-02T04:42:58.717Z,40
2018-05-02T04:44:08.536Z,40
2018-05-02T04:45:18.646Z,45
2018-05-02T04:46:28.719Z,50
2018-05-02T04:47:38.785Z,55
2018-05-02T04:48:48.608Z,55
2018-05-02T04:49:58.747Z,60
2018-05-02T04:51:08.844Z,60
2018-05-02T04:52:18.667Z,65
2018-05-02T04:53:28.746Z,65
2018-05-02T04:54:38.825Z,70
2018-05-02T04:55:48.681Z,70
2018-05-02T04:56:58.748Z,70
2018-05-02T04:58:08.550Z,70
2018-05-02T04:59:18.359Z,70
2018-05-02T05:00:28.453Z,70
2018-05-02T05:01:38.515Z,70
2018-05-02T05:02:48.328Z,70
2018-05-02T05:03:58.426Z,70
2018-05-02T05:05:07.982Z,75
2018-05-02T05:06:17.807Z,100
2018-05-02T05:07:27.682Z,230
2018-05-02T05:08:37.763Z,240
2018-05-02T05:09:47.838Z,195
2018-05-02T05:10:57.641Z,200
2018-05-02T05:12:07.720Z,230
2018-05-02T05:13:17.532Z,290
2018-05-02T05:14:27.598Z,300
2018-05-02T05:15:37.687Z,290
2018-05-02T05:16:47.766Z,285
2018-05-02T05:17:57.579Z,270
2018-05-02T05:19:07.410Z,245
2018-05-02T05:20:17.528Z,180
2018-05-02T05:21:27.340Z,225
2018-05-02T05:22:37.427Z,300
2018-05-02T05:23:47.233Z,300
2018-05-02T05:24:57.342Z,310
2018-05-02T05:26:07.427Z,310
2018-05-02T05:27:17.502Z,290
2018-05-02T05:28:27.774Z,305
2018-05-02T05:29:37.846Z,305
2018-05-02T05:30:48.005Z,310
2018-05-02T05:31:58.095Z,310
2018-05-02T05:33:07.660Z,305
2018-05-02T05:34:17.464Z,295
2018-05-02T05:35:27.934Z,290
2018-05-02T05:36:37.795Z,285
2018-05-02T05:37:47.887Z,275
2018-05-02T05:38:57.991Z,285
2018-05-02T05:40:07.807Z,285
2018-05-02T05:41:17.884Z,280
2018-05-02T05:42:27.992Z,280
2018-05-02T05:43:38.357Z,280
2018-05-02T05:44:48.458Z,280
2018-05-02T05:45:58.609Z,280
2018-05-02T05:47:08.698Z,280
2018-05-02T05:48:18.833Z,275
2018-05-02T05:49:28.917Z,275
2018-05-02T05:50:39.016Z,275
2018-05-02T05:51:49.096Z,245
2018-05-02T05:52:58.914Z,240
2018-05-02T05:54:09.601Z,175
2018-05-02T05:55:19.518Z,150
2018-05-02T05:56:29.073Z,150
2018-05-02T05:57:39.163Z,150
2018-05-02T05:58:49.271Z,150
2018-05-02T05:59:59.398Z,150
2018-05-02T06:01:09.225Z,150
2018-05-02T06:02:19.071Z,150
2018-05-02T06:03:29.133Z,150
2018-05-02T06:04:39.227Z,150
2018-05-02T06:05:49.066Z,150
2018-05-02T06:06:59.344Z,150
2018-05-02T06:08:09.425Z,145
2018-05-02T06:09:19.596Z,145
2018-05-02T06:10:29.685Z,150
2018-05-02T06:11:39.257Z,150
2018-05-02T06:12:49.807Z,150
2018-05-02T06:13:59.894Z,150
2018-05-02T06:15:09.720Z,155
2018-05-02T06:16:19.778Z,160
2018-05-02T06:17:29.862Z,165
2018-05-02T06:18:40.016Z,170
2018-05-02T06:19:50.129Z,165
2018-05-02T06:21:00.204Z,165
2018-05-02T06:22:10.283Z,165
2018-05-02T06:23:20.465Z,160
2018-05-02T06:24:30.559Z,155
2018-05-02T06:25:40.643Z,160
2018-05-02T06:26:50.547Z,165
2018-05-02T06:28:00.623Z,165
2018-05-02T06:29:10.699Z,165
2018-05-02T06:30:20.531Z,160
2018-05-02T06:31:30.084Z,160
2018-05-02T06:32:40.169Z,160
2018-05-02T06:33:50.278Z,155
2018-05-02T06:35:00.366Z,155
2018-05-02T06:36:10.455Z,155
2018-05-02T06:37:20.541Z,150
2018-05-02T06:38:30.830Z,155
2018-05-02T06:39:40.668Z,160
2018-05-02T06:40:50.371Z,155
2018-05-02T06:42:00.204Z,155
2018-05-02T06:43:10.044Z,155
2018-05-02T06:44:19.927Z,155
2018-05-02T06:45:29.747Z,160
2018-05-02T06:46:39.828Z,160
2018-05-02T06:47:49.141Z,160
2018-05-02T06:48:59.244Z,160
2018-05-02T06:50:09.344Z,160
2018-05-02T06:51:19.429Z,165
2018-05-02T06:52:29.501Z,160
2018-05-02T06:53:39.644Z,160
2018-05-02T06:54:49.812Z,160
2018-05-02T06:55:59.893Z,160
2018-05-02T06:57:10.059Z,160
2018-05-02T06:58:20.148Z,160
2018-05-02T06:59:30.236Z,165
2018-05-02T07:00:40.088Z,160
2018-05-02T07:01:50.226Z,160
2018-05-02T07:03:00.328Z,160
2018-05-02T07:04:10.202Z,165
2018-05-02T07:05:20.282Z,165
2018-05-02T07:06:30.120Z,165
2018-05-02T07:07:39.677Z,170
2018-05-02T07:08:49.807Z,165
2018-05-02T07:09:59.757Z,165
2018-05-02T07:11:09.859Z,165
2018-05-02T07:12:19.980Z,165
2018-05-02T07:13:29.898Z,165
2018-05-02T07:14:40.015Z,170
2018-05-02T07:15:50.098Z,170
2018-05-02T07:17:00.200Z,170
2018-05-02T07:18:10.322Z,170
2018-05-02T07:19:20.410Z,175
2018-05-02T07:20:30.500Z,175
2018-05-02T07:21:40.650Z,180
2018-05-02T07:22:50.721Z,180
2018-05-02T07:24:00.910Z,180
2018-05-02T07:25:11.027Z,185
2018-05-02T07:26:21.120Z,180
2018-05-02T07:27:31.221Z,180
2018-05-02T07:28:41.304Z,185
2018-05-02T07:29:51.398Z,180
2018-05-02T07:31:01.479Z,180
2018-05-02T07:32:11.291Z,180
2018-05-02T07:33:21.448Z,180
2018-05-02T07:34:31.274Z,180
2018-05-02T07:35:40.828Z,165
2018-05-02T07:36:50.944Z,165
2018-05-02T07:38:01.031Z,160
2018-05-02T07:39:11.404Z,195
2018-05-02T07:40:21.768Z,190
2018-05-02T07:41:31.956Z,160
2018-05-02T07:42:42.066Z,175
2018-05-02T07:43:51.668Z,185
2018-05-02T07:45:01.983Z,190
2018-05-02T07:46:11.831Z,205
2018-05-02T07:47:22.075Z,195
2018-05-02T07:48:31.729Z,200
2018-05-02T07:49:41.945Z,205
2018-05-02T07:50:52.215Z,205
2018-05-02T07:52:02.434Z,240
2018-05-02T07:53:12.830Z,260
2018-05-02T07:54:23.082Z,255
2018-05-02T07:55:33.356Z,245
2018-05-02T07:56:43.923Z,240
2018-05-02T07:57:54.364Z,235
2018-05-02T07:59:04.519Z,220
2018-05-02T08:00:14.614Z,215
2018-05-02T08:01:24.789Z,215
2018-05-02T08:02:35.006Z,210
2018-05-02T08:03:45.338Z,205
2018-05-02T08:04:55.668Z,200
2018-05-02T08:06:05.900Z,195
2018-05-02T08:07:16.084Z,195
2018-05-02T08:08:26.357Z,190
2018-05-02T08:09:36.648Z,190
2018-05-02T08:10:46.710Z,190
2018-05-02T08:11:56.904Z,190
2018-05-02T08:13:07.357Z,190
2018-05-02T08:14:17.797Z,190
2018-05-02T08:15:28.165Z,190
2018-05-02T08:16:38.598Z,185
2018-05-02T08:17:48.443Z,190
2018-05-02T08:18:58.844Z,190
2018-05-02T08:20:08.919Z,190
2018-05-02T08:21:18.791Z,190
2018-05-02T08:22:28.685Z,190
2018-05-02T08:23:39.122Z,190
2018-05-02T08:24:49.427Z,190
2018-05-02T08:25:59.713Z,190
2018-05-02T08:27:09.692Z,190
2018-05-02T08:28:19.807Z,190
2018-05-02T08:29:29.969Z,190
2018-05-02T08:30:40.163Z,190
2018-05-02T08:31:50.163Z,190
2018-05-02T08:33:00.327Z,190
2018-05-02T08:34:10.707Z,190
2018-05-02T08:35:20.589Z,190
2018-05-02T08:36:30.864Z,190
2018-05-02T08:37:41.131Z,190
2018-05-02T08:38:51.678Z,190
2018-05-02T08:40:02.113Z,195
2018-05-02T08:41:12.109Z,195
2018-05-02T08:42:21.671Z,195
2018-05-02T08:43:31.289Z,195
2018-05-02T08:44:41.146Z,195
2018-05-02T08:45:51.238Z,200
2018-05-02T08:47:01.325Z,200
2018-05-02T08:48:10.884Z,200
2018-05-02T08:49:21.063Z,200
2018-05-02T08:50:30.628Z,200
2018-05-02T08:51:40.718Z,205
2018-05-02T08:52:50.561Z,205
2018-05-02T08:54:00.727Z,200
2018-05-02T08:55:10.303Z,200
2018-05-02T08:56:20.120Z,195
2018-05-02T08:57:30.540Z,195
2018-05-02T08:58:40.457Z,195
2018-05-02T08:59:50.290Z,195
2018-05-02T09:01:00.128Z,195
2018-05-02T09:02:09.702Z,200
2018-05-02T09:03:19.805Z,195
2018-05-02T09:04:29.638Z,195
2018-05-02T09:05:39.471Z,195
2018-05-02T09:06:49.370Z,195
2018-05-02T09:07:59.489Z,195
2018-05-02T09:09:09.720Z,195
2018-05-02T09:10:19.827Z,195
2018-05-02T09:11:29.935Z,200
2018-05-02T09:12:40.035Z,195
2018-05-02T09:13:50.154Z,195
2018-05-02T09:15:00.240Z,190
2018-05-02T09:16:10.355Z,185
2018-05-02T09:17:19.914Z,185
2018-05-02T09:18:30.037Z,195
2018-05-02T09:19:39.359Z,195
2018-05-02T09:20:49.464Z,195
2018-05-02T09:21:59.327Z,195
2018-05-02T09:23:09.420Z,200
2018-05-02T09:24:19.583Z,195
2018-05-02T09:25:29.693Z,195
2018-05-02T09:26:39.790Z,200
2018-05-02T09:27:49.347Z,200
2018-05-02T09:28:59.448Z,200
2018-05-02T09:30:09.597Z,200
2018-05-02T09:31:19.703Z,200
2018-05-02T09:32:29.775Z,200
2018-05-02T09:33:39.901Z,205
2018-05-02T09:34:50.012Z,200
2018-05-02T09:36:00.176Z,200
2018-05-02T09:37:10.294Z,205
2018-05-02T09:38:20.417Z,200
2018-05-02T09:39:30.241Z,205
2018-05-02T09:40:40.340Z,205
2018-05-02T09:41:50.429Z,205
2018-05-02T09:43:00.514Z,205
2018-05-02T09:44:10.704Z,205
2018-05-02T09:45:20.539Z,205
2018-05-02T09:46:30.638Z,205
2018-05-02T09:47:40.799Z,200
2018-05-02T09:48:50.632Z,205
2018-05-02T09:50:00.728Z,210
2018-05-02T09:51:10.841Z,205
2018-05-02T09:52:20.926Z,205
2018-05-02T09:53:31.020Z,210
2018-05-02T09:54:41.135Z,210
2018-05-02T09:55:51.211Z,210
2018-05-02T09:57:01.128Z,210
2018-05-02T09:58:11.392Z,210
2018-05-02T09:59:21.549Z,210
2018-05-02T10:00:31.382Z,210
2018-05-02T10:01:41.212Z,205
2018-05-02T10:02:51.052Z,210
2018-05-02T10:04:01.141Z,215
2018-05-02T10:05:11.271Z,215
2018-05-02T10:06:21.389Z,215
2018-05-02T10:07:31.763Z,220
2018-05-02T10:08:41.861Z,220
2018-05-02T10:09:51.700Z,220
2018-05-02T10:11:01.801Z,220
2018-05-02T10:12:11.897Z,225
2018-05-02T10:13:21.763Z,215
2018-05-02T10:14:31.853Z,210
2018-05-02T10:15:41.939Z,200
2018-05-02T10:16:52.039Z,205
2018-05-02T10:18:02.136Z,185
2018-05-02T10:19:12.227Z,215
2018-05-02T10:20:22.311Z,215
2018-05-02T10:21:32.407Z,210
2018-05-02T10:22:42.558Z,210
2018-05-02T10:23:52.467Z,215
2018-05-02T10:25:02.038Z,220
2018-05-02T10:26:12.217Z,210
2018-05-02T10:27:21.985Z,200
2018-05-02T10:28:31.614Z,200
2018-05-02T10:29:41.709Z,215
2018-05-02T10:30:51.807Z,220
2018-05-02T10:32:02.009Z,215
2018-05-02T10:33:12.092Z,215
2018-05-02T10:34:21.935Z,215
2018-05-02T10:35:32.033Z,215
2018-05-02T10:36:41.888Z,215
2018-05-02T10:37:51.972Z,220
2018-05-02T10:39:01.802Z,210
2018-05-02T10:40:11.887Z,195
2018-05-02T10:41:21.984Z,200
2018-05-02T10:42:31.827Z,200
2018-05-02T10:43:41.664Z,225
2018-05-02T10:44:51.501Z,230
2018-05-02T10:46:01.322Z,235
2018-05-02T10:47:11.494Z,230
2018-05-02T10:48:21.054Z,235
2018-05-02T10:49:31.124Z,240
2018-05-02T10:50:41.426Z,230
2018-05-02T10:51:51.309Z,225
2018-05-02T10:53:01.410Z,235
2018-05-02T10:54:11.502Z,240
2018-05-02T10:55:21.617Z,240
2018-05-02T10:56:31.722Z,240
2018-05-02T10:57:41.819Z,225
2018-05-02T10:58:51.639Z,225
2018-05-02T11:00:01.743Z,235
2018-05-02T11:01:11.838Z,230
2018-05-02T11:02:21.943Z,220
2018-05-02T11:03:31.829Z,215
2018-05-02T11:04:41.932Z,220
2018-05-02T11:05:51.760Z,225
2018-05-02T11:07:01.332Z,220
2018-05-02T11:08:11.162Z,230
2018-05-02T11:09:21.313Z,220
2018-05-02T11:10:31.129Z,220
2018-05-02T11:11:41.227Z,230
2018-05-02T11:12:51.061Z,220
2018-05-02T11:14:01.175Z,205
2018-05-02T11:15:11.323Z,210
2018-05-02T11:16:21.427Z,215
2018-05-02T11:17:31.009Z,215
2018-05-02T11:18:41.141Z,210
2018-05-02T11:19:51.256Z,210
2018-05-02T11:21:01.368Z,210
2018-05-02T11:22:11.835Z,220
2018-05-02T11:23:21.941Z,230
2018-05-02T11:24:32.033Z,235
2018-05-02T11:25:42.129Z,240
2018-05-02T11:26:51.747Z,260
2018-05-02T11:28:01.856Z,260
2018-05-02T11:29:11.944Z,260
2018-05-02T11:30:22.039Z,255
2018-05-02T11:31:32.145Z,260
2018-05-02T11:32:42.319Z,260
2018-05-02T11:33:51.867Z,250
2018-05-02T11:35:01.708Z,260
2018-05-02T11:36:11.816Z,270
2018-05-02T11:37:21.652Z,250
2018-05-02T11:38:31.771Z,245
2018-05-02T11:39:41.620Z,230
2018-05-02T11:40:51.860Z,230
2018-05-02T11:42:01.716Z,220
2018-05-02T11:43:11.830Z,210
2018-05-02T11:44:21.712Z,230
2018-05-02T11:45:31.580Z,250
2018-05-02T11:46:41.682Z,260
2018-05-02T11:47:51.802Z,260
2018-05-02T11:49:01.902Z,265
2018-05-02T11:50:12.001Z,255
2018-05-02T11:51:22.109Z,255
2018-05-02T11:52:32.204Z,270
2018-05-02T11:53:42.028Z,270
2018-05-02T11:54:52.117Z,270
2018-05-02T11:56:01.734Z,270
2018-05-02T11:57:11.846Z,270
2018-05-02T11:58:21.956Z,275
2018-05-02T11:59:32.054Z,275
2018-05-02T12:00:42.147Z,275
2018-05-02T12:01:52.333Z,275
2018-05-02T12:03:02.442Z,280
2018-05-02T12:04:12.538Z,275
2018-05-02T12:05:22.651Z,270
2018-05-02T12:06:32.741Z,265
2018-05-02T12:07:42.883Z,265
2018-05-02T12:08:52.968Z,270
2018-05-02T12:10:02.828Z,260
2018-05-02T12:11:12.922Z,260
2018-05-02T12:12:23.011Z,260
2018-05-02T12:13:33.109Z,265
2018-05-02T12:14:43.198Z,265
2018-05-02T12:15:53.063Z,265
2018-05-02T12:17:03.160Z,265
2018-05-02T12:18:13.261Z,260
2018-05-02T12:19:23.403Z,270
2018-05-02T12:20:33.242Z,200
2018-05-02T12:21:43.334Z,270
2018-05-02T12:22:53.445Z,265
2018-05-02T12:24:03.539Z,265
2018-05-02T12:25:13.396Z,265
2018-05-02T12:26:23.475Z,260
2018-05-02T12:27:33.324Z,260
2018-05-02T12:28:43.413Z,250
2018-05-02T12:29:53.230Z,180
2018-05-02T12:31:03.061Z,235
2018-05-02T12:32:13.228Z,170
2018-05-02T12:33:23.335Z,220
2018-05-02T12:34:33.443Z,260
2018-05-02T12:35:43.549Z,260
2018-05-02T12:36:53.638Z,255
2018-05-02T12:38:03.758Z,255
2018-05-02T12:39:13.874Z,250
2018-05-02T12:40:23.975Z,255
2018-05-02T12:41:34.046Z,250
2018-05-02T12:42:43.907Z,180
2018-05-02T12:43:53.998Z,170
2018-05-02T12:45:03.840Z,170
2018-05-02T12:46:13.935Z,175
2018-05-02T12:47:24.034Z,170
2018-05-02T12:48:34.221Z,225
2018-05-02T12:49:44.368Z,255
2018-05-02T12:50:54.486Z,260
2018-05-02T12:52:04.332Z,270
2018-05-02T12:53:14.465Z,195
2018-05-02T12:54:24.556Z,270
2018-05-02T12:55:34.670Z,265
2018-05-02T12:56:44.771Z,215
2018-05-02T12:57:54.892Z,260
2018-05-02T12:59:05.002Z,285
2018-05-02T13:00:15.119Z,285
2018-05-02T13:01:24.977Z,275
2018-05-02T13:02:34.680Z,270
2018-05-02T13:03:44.784Z,260
2018-05-02T13:04:54.890Z,245
2018-05-02T13:06:04.992Z,240
2018-05-02T13:07:14.841Z,195
2018-05-02T13:08:24.955Z,185
2018-05-02T13:09:35.056Z,245
2018-05-02T13:10:45.175Z,235
2018-05-02T13:11:55.297Z,205
2018-05-02T13:13:05.443Z,245
2018-05-02T13:14:15.552Z,230
2018-05-02T13:15:25.396Z,230
2018-05-02T13:16:35.504Z,210
2018-05-02T13:17:45.604Z,165
2018-05-02T13:18:55.791Z,210
2018-05-02T13:20:05.640Z,165
2018-05-02T13:21:15.767Z,175
2018-05-02T13:22:25.608Z,220
2018-05-02T13:23:35.908Z,180
2018-05-02T13:24:46.077Z,180
2018-05-02T13:25:56.222Z,185
2018-05-02T13:27:06.312Z,190
2018-05-02T13:28:16.430Z,185
2018-05-02T13:29:26.534Z,175
2018-05-02T13:30:36.680Z,175
2018-05-02T13:31:46.815Z,165
2018-05-02T13:32:56.637Z,170
2018-05-02T13:34:06.824Z,175
2018-05-02T13:35:16.917Z,190
2018-05-02T13:36:27.134Z,225
2018-05-02T13:37:36.970Z,190
2018-05-02T13:38:47.116Z,215
2018-05-02T13:39:57.235Z,170
2018-05-02T13:41:07.339Z,170
2018-05-02T13:42:17.420Z,185
2018-05-02T13:43:26.991Z,180
2018-05-02T13:44:36.833Z,170
2018-05-02T13:45:46.948Z,160
2018-05-02T13:46:57.055Z,150
2018-05-02T13:48:06.900Z,145
2018-05-02T13:49:16.936Z,135
2018-05-02T13:50:27.046Z,125
2018-05-02T13:51:37.170Z,110
2018-05-02T13:52:47.271Z,105
2018-05-02T13:53:57.498Z,115
2018-05-02T13:55:07.144Z,135
2018-05-02T13:56:17.247Z,155
2018-05-02T13:57:27.085Z,180
2018-05-02T13:58:37.201Z,230
2018-05-02T13:59:47.302Z,230
2018-05-02T14:00:57.527Z,195
2018-05-02T14:02:07.649Z,200
2018-05-02T14:03:17.745Z,190
2018-05-02T14:04:27.868Z,175
2018-05-02T14:05:38.013Z,170
2018-05-02T14:06:47.873Z,225
2018-05-02T14:07:58.003Z,170
2018-05-02T14:09:08.339Z,160
2018-05-02T14:10:18.493Z,155
2018-05-02T14:11:28.656Z,135
2018-05-02T14:12:38.504Z,120
2018-05-02T14:13:48.637Z,115
2018-05-02T14:14:58.734Z,115
2018-05-02T14:16:08.922Z,120
2018-05-02T14:17:18.497Z,165
2018-05-02T14:18:28.345Z,130
2018-05-02T14:19:38.448Z,120
2018-05-02T14:20:48.556Z,110
2018-05-02T14:21:58.905Z,110
2018-05-02T14:23:08.989Z,160
2018-05-02T14:24:18.833Z,115
2018-05-02T14:25:28.964Z,110
2018-05-02T14:26:39.166Z,120
2018-05-02T14:27:49.252Z,170
2018-05-02T14:28:59.407Z,135
2018-05-02T14:30:09.527Z,135
2018-05-02T14:31:19.639Z,135
2018-05-02T14:32:29.467Z,135
2018-05-02T14:33:39.603Z,130
2018-05-02T14:34:49.710Z,130
2018-05-02T14:35:59.799Z,190
2018-05-02T14:37:09.906Z,200
2018-05-02T14:38:19.992Z,210
2018-05-02T14:39:29.835Z,210
2018-05-02T14:40:39.939Z,210
2018-05-02T14:41:50.053Z,200
2018-05-02T14:43:00.146Z,150
2018-05-02T14:44:10.241Z,145
2018-05-02T14:45:20.722Z,135
2018-05-02T14:46:30.845Z,145
2018-05-02T14:47:41.008Z,155
2018-05-02T14:48:51.115Z,210
2018-05-02T14:50:01.206Z,185
2018-05-02T14:51:11.054Z,195
2018-05-02T14:52:20.884Z,175
2018-05-02T14:53:30.974Z,155
2018-05-02T14:54:41.045Z,140
2018-05-02T14:55:51.234Z,130
2018-05-02T14:57:01.322Z,125
2018-05-02T14:58:11.410Z,120
2018-05-02T14:59:21.610Z,115
2018-05-02T15:00:31.700Z,115
2018-05-02T15:01:42.074Z,115
2018-05-02T15:02:51.902Z,110
2018-05-02T15:04:02.027Z,105
2018-05-02T15:05:12.176Z,100
2018-05-02T15:06:22.304Z,95
2018-05-02T15:07:32.621Z,90
2018-05-02T15:08:42.745Z,90
2018-05-02T15:09:52.587Z,85
2018-05-02T15:11:02.743Z,80
2018-05-02T15:12:12.853Z,75
2018-05-02T15:13:22.943Z,65
2018-05-02T15:14:33.042Z,50
2018-05-02T15:15:43.141Z,45
2018-05-02T15:16:53.249Z,40
2018-05-02T15:18:03.612Z,30
2018-05-02T15:19:13.707Z,25
2018-05-02T15:20:23.531Z,20
2018-05-02T15:21:33.629Z,20
2018-05-02T15:22:43.733Z,25
2018-05-02T15:23:53.890Z,25
2018-05-02T15:25:04.000Z,30
2018-05-02T15:26:14.126Z,35
2018-05-02T15:27:24.432Z,40
2018-05-02T15:28:34.529Z,40
2018-05-02T15:29:44.690Z,45
2018-05-02T15:30:54.528Z,45
2018-05-02T15:32:04.617Z,50
2018-05-02T15:33:14.727Z,60
2018-05-02T15:34:24.865Z,65
2018-05-02T15:35:34.954Z,70
2018-05-02T15:36:45.064Z,70
2018-05-02T15:37:55.148Z,85
2018-05-02T15:39:05.243Z,95
2018-05-02T15:40:15.422Z,105
2018-05-02T15:41:24.957Z,115
2018-05-02T15:42:35.069Z,125
2018-05-02T15:43:45.134Z,135
2018-05-02T15:44:55.247Z,145
2018-05-02T15:46:05.365Z,150
2018-05-02T15:47:15.449Z,160
2018-05-02T15:48:25.289Z,165
2018-05-02T15:49:35.388Z,170
2018-05-02T15:50:45.485Z,170
2018-05-02T15:51:55.753Z,175
2018-05-02T15:53:05.901Z,175
2018-05-02T15:54:16.016Z,175
2018-05-02T15:55:25.887Z,170
2018-05-02T15:56:35.768Z,165
2018-05-02T15:57:45.996Z,160
2018-05-02T15:58:56.148Z,160
2018-05-02T16:00:06.250Z,155
2018-05-02T16:01:16.352Z,140
2018-05-02T16:02:26.227Z,135
2018-05-02T16:03:36.074Z,130
2018-05-02T16:04:46.179Z,120
2018-05-02T16:05:56.284Z,110
2018-05-02T16:07:08.384Z,105
2018-05-02T16:08:20.569Z,100
2018-05-02T16:09:31.365Z,95
2018-05-02T16:10:41.847Z,95
2018-05-02T16:11:51.976Z,85
2018-05-02T16:13:01.550Z,80
2018-05-02T16:14:11.650Z,75
2018-05-02T16:15:21.217Z,70
2018-05-02T16:16:31.865Z,65
2018-05-02T16:17:42.114Z,65
2018-05-02T16:18:52.203Z,60
2018-05-02T16:20:02.408Z,60
2018-05-02T16:21:12.221Z,55
2018-05-02T16:22:22.226Z,55
2018-05-02T16:23:32.339Z,55
2018-05-02T16:24:42.445Z,50
2018-05-02T16:25:52.625Z,50
2018-05-02T16:27:02.732Z,50
2018-05-02T16:28:12.822Z,45
2018-05-02T16:29:22.994Z,45
2018-05-02T16:30:33.090Z,45
2018-05-02T16:31:43.177Z,45
2018-05-02T16:32:53.036Z,45
2018-05-02T16:34:03.130Z,45
2018-05-02T16:35:13.222Z,45
2018-05-02T16:36:23.334Z,45
2018-05-02T16:37:33.417Z,40
2018-05-02T16:38:43.511Z,40
2018-05-02T16:39:53.593Z,40
2018-05-02T16:41:03.408Z,35
2018-05-02T16:42:13.034Z,35
2018-05-02T16:43:23.151Z,35
2018-05-02T16:44:33.245Z,35
2018-05-02T16:45:43.344Z,30
2018-05-02T16:46:53.437Z,30
2018-05-02T16:48:03.527Z,30
2018-05-02T16:49:13.656Z,30
2018-05-02T16:50:23.527Z,25
2018-05-02T16:51:33.634Z,25
2018-05-02T16:52:43.769Z,25
2018-05-02T16:53:53.899Z,25
2018-05-02T16:55:03.990Z,25